Time;durP1;ratioP1;P1;durP2;ratioP2;P2;SDS_P1;SDS_P2;PMS_P1;PMS_P2;Temp;Humidity;BMP_temperature;BMP_pressure;BME280_temperature;BME280_humidity;BME280_pressure;Samples;Min_cycle;Max_cycle;Signal;HPM_P1;HPM_P2
2021/09/02 00:01:13;;;;;;;19.23;14.52;;;28.70;99.90;;;;;;4232487;27;20074;-76
2021/09/02 00:03:18;;;;;;;18.42;14.35;;;28.60;99.90;;;;;;4229555;27;20055;-75
2021/09/02 00:05:22;;;;;;;19.48;15.43;;;28.60;99.90;;;;;;4214425;28;20055;-76
2021/09/02 00:07:29;;;;;;;18.55;14.35;;;28.60;99.90;;;;;;4212271;28;20481;-76
2021/09/02 00:09:35;;;;;;;17.88;13.48;;;28.60;99.90;;;;;;4211710;28;20042;-75
2021/09/02 00:11:39;;;;;;;17.02;13.23;;;28.60;99.90;;;;;;4212007;28;20051;-75
2021/09/02 00:13:46;;;;;;;15.48;12.60;;;28.70;99.90;;;;;;4212550;28;20055;-76
2021/09/02 00:15:52;;;;;;;16.50;13.45;;;28.60;99.90;;;;;;4212777;28;20060;-76
2021/09/02 00:17:58;;;;;;;16.77;12.88;;;28.60;99.90;;;;;;4212751;28;20067;-76
2021/09/02 00:20:04;;;;;;;16.77;12.57;;;28.60;99.90;;;;;;4212377;28;20054;-76
2021/09/02 00:22:08;;;;;;;14.48;11.45;;;28.70;99.90;;;;;;4212767;28;20036;-76
2021/09/02 00:24:13;;;;;;;13.77;12.20;;;28.70;99.90;;;;;;4225547;28;20044;-76
2021/09/02 00:26:17;;;;;;;14.63;12.18;;;28.80;99.90;;;;;;4218749;28;20032;-76
2021/09/02 00:28:22;;;;;;;16.23;12.68;;;28.80;99.90;;;;;;4214584;28;20044;-76
2021/09/02 00:30:26;;;;;;;14.80;11.65;;;28.80;99.90;;;;;;4220808;28;20048;-76
2021/09/02 00:32:31;;;;;;;14.18;11.43;;;28.90;99.90;;;;;;4222814;28;20154;-76
2021/09/02 00:34:35;;;;;;;18.40;11.70;;;29.00;99.90;;;;;;4216834;28;20086;-76
2021/09/02 00:36:40;;;;;;;15.90;11.60;;;28.90;99.90;;;;;;4212926;28;20042;-76
2021/09/02 00:38:44;;;;;;;14.77;11.68;;;29.00;99.90;;;;;;4211516;28;20455;-76
2021/09/02 00:40:48;;;;;;;16.05;12.20;;;28.90;99.90;;;;;;4208927;28;20055;-76
2021/09/02 00:42:53;;;;;;;15.18;12.63;;;28.90;99.90;;;;;;4212975;28;20105;-77
2021/09/02 00:44:59;;;;;;;15.82;12.70;;;29.00;99.90;;;;;;4210440;28;20452;-76
2021/09/02 00:47:06;;;;;;;14.55;12.70;;;29.00;99.90;;;;;;4211297;28;20425;-76
2021/09/02 00:49:10;;;;;;;15.98;12.80;;;29.00;99.90;;;;;;4210795;28;20036;-76
2021/09/02 00:51:18;;;;;;;16.48;13.23;;;29.00;99.90;;;;;;4211170;28;20074;-76
2021/09/02 00:53:23;;;;;;;15.48;13.52;;;28.90;99.90;;;;;;4211377;28;20048;-76
2021/09/02 00:55:28;;;;;;;17.58;12.48;;;28.80;99.90;;;;;;4211132;28;20040;-77
2021/09/02 00:57:32;;;;;;;17.63;12.70;;;28.90;99.90;;;;;;4210862;28;20044;-73
2021/09/02 00:59:38;;;;;;;16.10;11.13;;;28.90;99.90;;;;;;4206425;28;20058;-76
2021/09/02 01:01:43;;;;;;;15.95;11.80;;;29.00;99.90;;;;;;4209337;28;20493;-76
2021/09/02 01:03:48;;;;;;;12.95;10.43;;;29.00;99.90;;;;;;4198432;28;20064;-76
2021/09/02 01:05:52;;;;;;;14.73;11.30;;;29.20;99.90;;;;;;4190492;28;20036;-76
2021/09/02 01:07:57;;;;;;;12.82;11.43;;;29.20;99.90;;;;;;4191490;28;20091;-75
2021/09/02 01:10:02;;;;;;;17.52;11.98;;;29.30;99.90;;;;;;4192838;28;20052;-76
2021/09/02 01:12:39;;;;;;;13.95;11.88;;;29.40;99.90;;;;;;4191949;28;20122;-75
2021/09/02 01:14:43;;;;;;;14.10;11.35;;;29.40;99.90;;;;;;4193897;28;20059;-75
2021/09/02 01:16:48;;;;;;;13.95;11.88;;;29.40;99.90;;;;;;4193435;28;20064;-76
2021/09/02 01:18:52;;;;;;;15.18;11.43;;;29.50;99.90;;;;;;4194023;28;20056;-76
2021/09/02 01:21:01;;;;;;;14.75;11.50;;;29.10;99.90;;;;;;4194173;28;20486;-76
2021/09/02 01:23:06;;;;;;;15.55;10.75;;;29.10;99.90;;;;;;4193744;28;20048;-76
2021/09/02 01:25:13;;;;;;;13.40;11.02;;;29.10;99.90;;;;;;4193963;28;20098;-75
2021/09/02 01:27:18;;;;;;;14.82;10.63;;;29.20;99.90;;;;;;4194546;28;20115;-76
2021/09/02 01:29:23;;;;;;;11.48;9.77;;;29.30;99.90;;;;;;4194277;28;20171;-76
2021/09/02 01:31:28;;;;;;;13.07;10.43;;;29.30;99.90;;;;;;4192295;28;20135;-75
2021/09/02 01:33:32;;;;;;;16.42;10.27;;;29.30;99.90;;;;;;4193805;28;20044;-75
2021/09/02 01:35:36;;;;;;;12.75;10.70;;;29.30;99.90;;;;;;4192551;28;20035;-76
2021/09/02 01:37:45;;;;;;;12.70;10.00;;;29.20;99.90;;;;;;4193150;28;20530;-76
2021/09/02 01:39:50;;;;;;;13.32;10.10;;;29.20;99.90;;;;;;4193992;28;20503;-74
2021/09/02 01:41:54;;;;;;;13.95;10.23;;;29.40;99.90;;;;;;4193644;28;20067;-76
2021/09/02 01:43:59;;;;;;;16.20;9.95;;;29.60;99.90;;;;;;4196026;28;20091;-75
2021/09/02 01:46:03;;;;;;;15.05;10.98;;;29.70;99.90;;;;;;4196717;28;20494;-75
2021/09/02 01:48:08;;;;;;;10.43;9.18;;;29.90;99.90;;;;;;4193734;28;20039;-76
2021/09/02 01:50:20;;;;;;;13.82;10.70;;;30.00;99.90;;;;;;4196098;28;20435;-75
2021/09/02 01:52:25;;;;;;;12.63;8.75;;;30.10;99.90;;;;;;4195802;28;20054;-73
2021/09/02 01:54:30;;;;;;;11.68;8.20;;;30.10;99.90;;;;;;4195719;28;20376;-75
2021/09/02 01:56:35;;;;;;;10.95;8.15;;;30.10;99.90;;;;;;4196071;28;20043;-74
2021/09/02 01:58:40;;;;;;;10.60;8.32;;;30.10;99.90;;;;;;4193682;28;20520;-74
2021/09/02 02:00:44;;;;;;;9.35;7.75;;;30.30;99.90;;;;;;4195754;28;20119;-73
2021/09/02 02:02:50;;;;;;;9.60;6.53;;;30.60;99.90;;;;;;4204999;27;20151;-74
2021/09/02 02:04:54;;;;;;;8.52;6.63;;;30.70;99.90;;;;;;4233644;27;20116;-74
2021/09/02 02:06:59;;;;;;;9.57;7.95;;;30.90;99.90;;;;;;4230876;27;20130;-74
2021/09/02 02:09:03;;;;;;;12.35;8.68;;;30.70;99.90;;;;;;4226053;28;20039;-74
2021/09/02 02:11:08;;;;;;;11.98;8.85;;;30.40;99.90;;;;;;4238084;27;20047;-74
2021/09/02 02:13:12;;;;;;;10.57;8.63;;;30.30;99.90;;;;;;4234732;27;20473;-74
2021/09/02 02:15:17;;;;;;;11.68;8.60;;;30.30;99.90;;;;;;4235288;27;20039;-75
2021/09/02 02:17:21;;;;;;;9.60;7.90;;;30.20;99.90;;;;;;4233904;27;20051;-74
2021/09/02 02:19:26;;;;;;;12.75;7.35;;;30.20;99.90;;;;;;4213542;28;20052;-74
2021/09/02 02:21:31;;;;;;;11.05;8.43;;;30.20;99.90;;;;;;4240129;27;20078;-75
2021/09/02 02:23:35;;;;;;;11.77;8.25;;;30.30;99.90;;;;;;4238624;27;20523;-75
2021/09/02 02:25:40;;;;;;;9.75;8.73;;;30.20;99.90;;;;;;4234085;27;20044;-74
2021/09/02 02:27:44;;;;;;;10.27;8.40;;;30.40;99.90;;;;;;4235876;27;20043;-74
2021/09/02 02:29:49;;;;;;;11.90;8.15;;;30.70;99.90;;;;;;4231813;27;20048;-74
2021/09/02 02:31:53;;;;;;;9.85;7.43;;;30.60;99.90;;;;;;4238153;27;20039;-75
2021/09/02 02:33:58;;;;;;;7.43;6.63;;;30.60;99.90;;;;;;4237000;27;20070;-76
2021/09/02 02:36:03;;;;;;;7.60;6.47;;;30.70;99.90;;;;;;4232645;27;20039;-75
2021/09/02 02:38:08;;;;;;;7.88;6.88;;;30.50;99.90;;;;;;4238637;27;20043;-75
2021/09/02 02:40:13;;;;;;;9.73;6.45;;;30.60;99.90;;;;;;4237766;27;20532;-75
2021/09/02 02:42:17;;;;;;;9.50;6.40;;;30.70;99.90;;;;;;4236778;27;20043;-75
2021/09/02 02:44:21;;;;;;;10.20;6.13;;;31.00;99.90;;;;;;4236506;27;20043;-74
2021/09/02 02:46:26;;;;;;;9.38;6.07;;;30.90;99.90;;;;;;4236830;27;20079;-74
2021/09/02 02:48:31;;;;;;;11.02;6.47;;;30.90;99.90;;;;;;4237677;27;20413;-75
2021/09/02 02:50:35;;;;;;;9.57;7.68;;;31.20;99.90;;;;;;4234725;27;20040;-74
2021/09/02 02:52:40;;;;;;;8.38;6.18;;;31.00;99.90;;;;;;4237917;27;20055;-75
2021/09/02 02:54:44;;;;;;;9.43;6.40;;;30.80;99.90;;;;;;4218379;28;20047;-75
2021/09/02 02:56:49;;;;;;;8.15;6.65;;;30.60;99.90;;;;;;4236622;27;20047;-75
2021/09/02 02:58:53;;;;;;;7.82;5.95;;;30.60;99.90;;;;;;4237702;27;20047;-75
2021/09/02 03:00:58;;;;;;;7.38;5.68;;;30.70;99.90;;;;;;4237003;27;20043;-75
2021/09/02 03:03:03;;;;;;;8.07;5.82;;;30.90;99.90;;;;;;4232850;27;20043;-75
2021/09/02 03:05:08;;;;;;;7.85;5.80;;;31.00;99.90;;;;;;4234503;27;20035;-75
2021/09/02 03:07:12;;;;;;;6.95;5.57;;;31.10;99.90;;;;;;4228392;27;20097;-75
2021/09/02 03:09:16;;;;;;;10.30;5.78;;;31.20;99.90;;;;;;4232525;27;20047;-75
2021/09/02 03:11:21;;;;;;;7.28;5.68;;;31.30;99.90;;;;;;4231919;27;20126;-75
2021/09/02 03:13:25;;;;;;;9.10;6.03;;;31.20;99.90;;;;;;4230563;27;20055;-75
2021/09/02 03:15:30;;;;;;;7.65;5.53;;;31.30;99.90;;;;;;4222431;28;20048;-75
2021/09/02 03:17:35;;;;;;;7.07;6.03;;;31.40;99.90;;;;;;4227921;28;20050;-75
2021/09/02 03:19:39;;;;;;;6.90;5.75;;;31.20;99.90;;;;;;4229684;28;20035;-75
2021/09/02 03:21:44;;;;;;;7.53;5.85;;;31.20;99.90;;;;;;4232046;27;20500;-75
2021/09/02 03:23:48;;;;;;;7.43;6.10;;;31.30;99.90;;;;;;4230266;27;20042;-74
2021/09/02 03:25:53;;;;;;;7.63;5.72;;;31.40;99.90;;;;;;4228575;27;20051;-74
2021/09/02 03:27:57;;;;;;;6.30;5.55;;;31.20;99.90;;;;;;4231008;27;20458;-75
2021/09/02 03:30:03;;;;;;;9.43;5.32;;;31.30;99.90;;;;;;4230652;27;20046;-75
2021/09/02 03:32:07;;;;;;;8.88;5.60;;;31.40;99.90;;;;;;4215047;28;20497;-75
2021/09/02 03:34:12;;;;;;;7.82;5.32;;;31.50;99.90;;;;;;4228754;27;20093;-74
2021/09/02 03:36:16;;;;;;;7.40;5.40;;;31.70;99.90;;;;;;4219310;28;20072;-75
2021/09/02 03:38:21;;;;;;;6.32;5.38;;;31.50;99.90;;;;;;4231517;27;20058;-75
2021/09/02 03:40:25;;;;;;;7.85;5.50;;;31.20;99.90;;;;;;4230142;27;20138;-75
2021/09/02 03:42:30;;;;;;;6.10;5.00;;;31.10;99.90;;;;;;4230075;27;20082;-76
2021/09/02 03:44:34;;;;;;;8.00;5.00;;;31.20;99.90;;;;;;4229794;27;20044;-75
2021/09/02 03:46:39;;;;;;;5.28;4.30;;;31.30;99.90;;;;;;4229334;27;20040;-75
2021/09/02 03:48:43;;;;;;;5.20;4.35;;;31.50;99.90;;;;;;4229267;28;20043;-76
2021/09/02 03:50:48;;;;;;;9.77;4.65;;;31.70;99.90;;;;;;4230513;27;20510;-74
2021/09/02 03:52:52;;;;;;;6.43;4.95;;;31.80;99.90;;;;;;4229778;27;20043;-73
2021/09/02 03:54:56;;;;;;;8.10;4.45;;;31.80;99.90;;;;;;4231880;27;20452;-71
2021/09/02 03:57:01;;;;;;;6.28;4.47;;;31.80;99.90;;;;;;4228768;28;20043;-73
2021/09/02 03:59:05;;;;;;;6.93;4.40;;;32.00;99.90;;;;;;4231297;27;20047;-73
2021/09/02 04:01:10;;;;;;;4.95;4.15;;;32.10;99.90;;;;;;4230319;27;20043;-74
2021/09/02 04:03:15;;;;;;;5.00;4.50;;;32.30;99.90;;;;;;4223599;28;20117;-74
2021/09/02 04:05:20;;;;;;;6.10;4.47;;;32.30;99.90;;;;;;4222820;28;20039;-75
2021/09/02 04:07:24;;;;;;;5.93;3.90;;;32.30;99.90;;;;;;4224520;28;20127;-75
2021/09/02 04:09:28;;;;;;;5.65;4.10;;;32.30;99.90;;;;;;4220862;28;20328;-74
2021/09/02 04:11:33;;;;;;;4.45;3.95;;;32.50;99.90;;;;;;4216905;28;20039;-76
2021/09/02 04:13:38;;;;;;;6.88;3.80;;;32.50;99.90;;;;;;4220897;28;20044;-75
2021/09/02 04:15:42;;;;;;;4.65;3.65;;;32.30;99.90;;;;;;4222618;28;20047;-75
2021/09/02 04:17:47;;;;;;;5.72;3.95;;;32.20;99.90;;;;;;4222382;28;20051;-74
2021/09/02 04:19:51;;;;;;;4.80;3.38;;;32.20;99.90;;;;;;4221051;28;20061;-75
2021/09/02 04:21:56;;;;;;;6.78;3.60;;;32.20;99.90;;;;;;4224127;28;20047;-76
2021/09/02 04:24:01;;;;;;;5.68;3.40;;;32.20;99.90;;;;;;4221696;28;20035;-75
2021/09/02 04:26:05;;;;;;;5.05;3.58;;;32.20;99.90;;;;;;4218508;28;20542;-75
2021/09/02 04:28:09;;;;;;;5.40;3.15;;;32.30;99.90;;;;;;4218752;28;20092;-75
2021/09/02 04:30:14;;;;;;;4.30;3.42;;;32.40;99.90;;;;;;4212946;28;20438;-74
2021/09/02 04:32:18;;;;;;;4.88;3.30;;;32.40;99.90;;;;;;4220851;28;20557;-75
2021/09/02 04:34:22;;;;;;;5.30;3.15;;;32.30;99.90;;;;;;4219642;28;20087;-75
2021/09/02 04:36:27;;;;;;;7.82;3.55;;;32.20;99.90;;;;;;4221079;28;20525;-75
2021/09/02 04:38:31;;;;;;;5.25;3.20;;;32.20;99.90;;;;;;4218625;28;20044;-75
2021/09/02 04:40:36;;;;;;;4.63;3.30;;;32.20;99.90;;;;;;4220268;28;20035;-75
2021/09/02 04:42:40;;;;;;;5.13;3.83;;;32.20;99.90;;;;;;4215005;28;20036;-76
2021/09/02 04:44:44;;;;;;;5.40;3.22;;;32.10;99.90;;;;;;4217664;28;20143;-75
2021/09/02 04:46:48;;;;;;;4.22;3.10;;;31.90;99.90;;;;;;4212449;28;20127;-75
2021/09/02 04:48:53;;;;;;;4.50;3.25;;;31.80;99.90;;;;;;4215944;28;20047;-76
2021/09/02 04:50:58;;;;;;;4.15;3.22;;;32.10;99.90;;;;;;4216358;28;20047;-75
2021/09/02 04:53:02;;;;;;;4.75;3.50;;;32.40;99.90;;;;;;4217089;28;20052;-76
2021/09/02 04:55:07;;;;;;;3.30;3.00;;;32.30;99.90;;;;;;4215057;28;20047;-76
2021/09/02 04:57:11;;;;;;;4.00;3.00;;;32.30;99.90;;;;;;4224224;28;20894;-76
2021/09/02 04:59:16;;;;;;;4.15;3.53;;;32.30;99.90;;;;;;4213097;28;20548;-76
2021/09/02 05:01:20;;;;;;;5.97;2.90;;;32.30;99.90;;;;;;4209378;28;20051;-76
2021/09/02 05:03:26;;;;;;;4.22;3.20;;;32.40;99.90;;;;;;4212140;28;20044;-72
2021/09/02 05:05:30;;;;;;;7.00;2.95;;;32.50;99.90;;;;;;4201520;28;20052;-77
2021/09/02 05:07:34;;;;;;;4.03;2.70;;;32.50;99.90;;;;;;4215823;28;20050;-75
2021/09/02 05:09:39;;;;;;;5.03;2.95;;;32.60;99.90;;;;;;4213163;28;20450;-76
2021/09/02 05:11:50;;;;;;;3.33;2.63;;;32.70;99.90;;;;;;4210504;28;20043;-76
2021/09/02 05:13:54;;;;;;;4.38;2.45;;;32.80;99.90;;;;;;4226799;28;20110;-76
2021/09/02 05:15:59;;;;;;;4.25;2.55;;;32.90;99.90;;;;;;4225568;28;20044;-76
2021/09/02 05:18:04;;;;;;;3.58;2.80;;;32.90;98.20;;;;;;4216340;28;20052;-76
2021/09/02 05:20:08;;;;;;;6.78;2.50;;;32.80;98.90;;;;;;4223934;28;20093;-76
2021/09/02 05:22:13;;;;;;;3.08;2.78;;;32.80;97.60;;;;;;4209801;28;20071;-76
2021/09/02 05:24:18;;;;;;;3.78;2.67;;;32.80;98.20;;;;;;4220249;28;20483;-76
2021/09/02 05:26:22;;;;;;;3.53;2.45;;;32.90;98.40;;;;;;4216781;28;20093;-76
2021/09/02 05:28:26;;;;;;;3.05;2.50;;;33.00;98.80;;;;;;4215715;28;20043;-75
2021/09/02 05:30:31;;;;;;;3.42;2.60;;;33.10;99.40;;;;;;4218481;28;20093;-75
2021/09/02 05:32:35;;;;;;;3.40;2.63;;;33.20;99.50;;;;;;4206885;28;20513;-75
2021/09/02 05:34:40;;;;;;;3.25;2.60;;;33.10;99.20;;;;;;4210954;28;20048;-74
2021/09/02 05:36:44;;;;;;;3.78;2.67;;;33.00;98.90;;;;;;4211860;28;20067;-76
2021/09/02 05:38:49;;;;;;;4.07;2.50;;;32.80;98.00;;;;;;4213374;28;20052;-74
2021/09/02 05:40:53;;;;;;;3.92;2.50;;;32.60;97.80;;;;;;4214814;28;20452;-77
2021/09/02 05:42:58;;;;;;;3.10;2.70;;;32.50;98.60;;;;;;4215569;28;20079;-77
2021/09/02 05:45:03;;;;;;;3.42;2.53;;;32.50;98.30;;;;;;4216039;28;20044;-76
2021/09/02 05:47:08;;;;;;;5.72;2.60;;;32.50;98.40;;;;;;4213111;28;20135;-77
2021/09/02 05:49:13;;;;;;;4.68;2.78;;;32.60;98.20;;;;;;4217038;28;20105;-76
2021/09/02 05:51:17;;;;;;;5.70;3.22;;;32.70;98.10;;;;;;4214877;28;20039;-76
2021/09/02 05:53:22;;;;;;;3.25;2.53;;;32.70;98.60;;;;;;4212318;28;20052;-75
2021/09/02 05:55:26;;;;;;;4.68;2.65;;;32.70;98.60;;;;;;4223684;28;20138;-74
2021/09/02 05:57:31;;;;;;;4.05;2.92;;;32.80;98.10;;;;;;4218117;28;20476;-76
2021/09/02 05:59:36;;;;;;;3.40;2.63;;;32.90;98.70;;;;;;4214023;28;20056;-75
2021/09/02 06:01:40;;;;;;;3.33;2.70;;;32.80;97.50;;;;;;4215350;28;20036;-75
2021/09/02 06:03:45;;;;;;;4.25;2.97;;;32.80;97.80;;;;;;4220489;27;20055;-74
2021/09/02 06:05:49;;;;;;;5.53;2.88;;;33.00;99.30;;;;;;4229834;27;20051;-74
2021/09/02 06:07:54;;;;;;;3.40;2.50;;;33.10;98.70;;;;;;4235786;27;20036;-76
2021/09/02 06:09:58;;;;;;;3.35;2.15;;;33.10;98.20;;;;;;4236189;27;20039;-74
2021/09/02 06:12:03;;;;;;;4.20;2.40;;;33.10;98.30;;;;;;4236180;27;20071;-75
2021/09/02 06:14:07;;;;;;;4.63;2.30;;;33.20;98.20;;;;;;4230223;28;20048;-76
2021/09/02 06:16:11;;;;;;;7.85;3.47;;;33.20;97.70;;;;;;4218426;28;20098;-74
2021/09/02 06:18:16;;;;;;;4.15;2.47;;;33.40;98.10;;;;;;4232224;27;20043;-73
2021/09/02 06:20:20;;;;;;;2.63;2.05;;;33.40;97.30;;;;;;4231898;27;20070;-74
2021/09/02 06:22:25;;;;;;;3.30;2.15;;;33.50;94.80;;;;;;4230949;27;20055;-74
2021/09/02 06:24:29;;;;;;;3.17;2.40;;;33.30;95.20;;;;;;4224618;28;20359;-75
2021/09/02 06:26:34;;;;;;;5.63;2.15;;;33.30;96.40;;;;;;4230266;27;20047;-74
2021/09/02 06:28:39;;;;;;;3.55;2.08;;;33.40;97.30;;;;;;4227233;27;20070;-76
2021/09/02 06:30:43;;;;;;;3.75;2.30;;;33.50;97.20;;;;;;4230730;27;20035;-75
2021/09/02 06:32:47;;;;;;;5.25;2.35;;;33.50;96.90;;;;;;4230061;27;20051;-75
2021/09/02 06:34:51;;;;;;;3.00;1.95;;;33.60;96.50;;;;;;4231068;27;20058;-76
2021/09/02 06:36:56;;;;;;;2.35;1.95;;;33.70;95.80;;;;;;4233835;27;20039;-76
2021/09/02 06:39:00;;;;;;;5.18;2.17;;;33.80;95.20;;;;;;4232359;27;20028;-73
2021/09/02 06:41:04;;;;;;;3.22;2.22;;;33.80;95.20;;;;;;4229333;27;20048;-75
2021/09/02 06:43:09;;;;;;;5.13;2.00;;;33.90;95.70;;;;;;4230065;27;20046;-74
2021/09/02 06:45:13;;;;;;;4.05;2.20;;;33.90;95.50;;;;;;4229338;27;20050;-74
2021/09/02 06:47:18;;;;;;;3.15;2.08;;;34.10;95.80;;;;;;4234002;27;20054;-72
2021/09/02 06:49:22;;;;;;;2.83;2.20;;;34.20;95.20;;;;;;4239062;27;20071;-73
2021/09/02 06:51:27;;;;;;;3.45;2.25;;;34.20;94.90;;;;;;4239764;27;20109;-73
2021/09/02 06:53:31;;;;;;;3.95;2.08;;;34.30;94.30;;;;;;4244099;27;20408;-74
2021/09/02 06:55:35;;;;;;;5.57;2.00;;;34.30;94.50;;;;;;4231566;27;20139;-74
2021/09/02 06:57:40;;;;;;;2.42;2.05;;;34.30;94.50;;;;;;4236664;27;20096;-73
2021/09/02 06:59:44;;;;;;;6.88;1.98;;;34.40;94.40;;;;;;4234368;27;20050;-73
2021/09/02 07:01:49;;;;;;;4.55;2.03;;;34.50;94.40;;;;;;4215381;28;20081;-73
2021/09/02 07:03:54;;;;;;;2.30;2.00;;;34.60;94.20;;;;;;4222270;27;20076;-73
2021/09/02 07:05:58;;;;;;;3.85;2.17;;;34.60;93.70;;;;;;4220293;28;20385;-73
2021/09/02 07:08:03;;;;;;;3.72;2.03;;;34.70;93.50;;;;;;4222523;28;20047;-73
2021/09/02 07:10:11;;;;;;;4.45;2.00;;;34.70;93.20;;;;;;4214802;28;20078;-73
2021/09/02 07:12:16;;;;;;;2.53;2.00;;;34.70;92.30;;;;;;4217301;28;20130;-74
2021/09/02 07:14:21;;;;;;;3.08;2.17;;;34.70;92.50;;;;;;4216294;28;20320;-73
2021/09/02 07:16:25;;;;;;;2.60;1.80;;;34.70;92.20;;;;;;4220046;28;20513;-73
2021/09/02 07:18:29;;;;;;;3.55;1.83;;;34.60;92.70;;;;;;4218463;27;20044;-73
2021/09/02 07:20:34;;;;;;;3.45;2.00;;;34.50;92.70;;;;;;4216044;28;20047;-73
2021/09/02 07:22:38;;;;;;;4.20;1.95;;;34.40;92.70;;;;;;4211998;28;20056;-74
2021/09/02 07:24:43;;;;;;;3.47;2.03;;;34.30;93.00;;;;;;4216331;28;20043;-73
2021/09/02 07:26:47;;;;;;;3.25;2.20;;;34.20;93.30;;;;;;4215188;28;20044;-73
2021/09/02 07:28:52;;;;;;;4.00;2.35;;;34.10;94.40;;;;;;4217172;28;20044;-72
2021/09/02 07:30:57;;;;;;;4.65;2.65;;;34.10;94.30;;;;;;4215563;28;20036;-72
2021/09/02 07:33:02;;;;;;;3.88;2.72;;;34.10;94.70;;;;;;4220868;28;20493;-74
2021/09/02 07:35:06;;;;;;;4.22;2.50;;;34.00;94.90;;;;;;4220053;28;20048;-72
2021/09/02 07:37:11;;;;;;;5.07;2.80;;;33.90;95.10;;;;;;4219914;28;20079;-73
2021/09/02 07:39:16;;;;;;;3.72;2.55;;;33.80;95.20;;;;;;4215843;28;20532;-74
2021/09/02 07:41:20;;;;;;;5.63;2.30;;;33.70;95.50;;;;;;4214219;28;20051;-73
2021/09/02 07:43:25;;;;;;;5.38;2.33;;;33.60;95.20;;;;;;4219459;28;20043;-73
2021/09/02 07:45:29;;;;;;;4.60;2.10;;;33.60;95.20;;;;;;4214742;28;20120;-74
2021/09/02 07:47:34;;;;;;;6.10;1.98;;;33.60;95.10;;;;;;4218255;28;20040;-74
2021/09/02 07:49:39;;;;;;;4.47;2.30;;;33.60;95.20;;;;;;4216784;28;20410;-74
2021/09/02 07:51:43;;;;;;;2.53;2.10;;;33.60;94.90;;;;;;4212588;28;20051;-74
2021/09/02 07:53:47;;;;;;;7.25;2.05;;;33.60;94.60;;;;;;4210398;28;20032;-74
2021/09/02 07:55:52;;;;;;;2.47;2.10;;;33.60;94.90;;;;;;4210436;28;20097;-74
2021/09/02 07:57:59;;;;;;;5.05;2.00;;;33.60;94.90;;;;;;4210233;28;20087;-74
2021/09/02 08:00:04;;;;;;;3.75;1.90;;;33.60;94.80;;;;;;4209459;28;20056;-74
2021/09/02 08:02:14;;;;;;;5.63;2.03;;;33.70;94.90;;;;;;4216876;28;20054;-73
2021/09/02 08:04:19;;;;;;;4.53;2.40;;;33.90;94.70;;;;;;4230005;27;20561;-72
2021/09/02 08:06:25;;;;;;;4.18;2.17;;;34.00;95.30;;;;;;4216225;27;20048;-74
2021/09/02 08:08:29;;;;;;;2.75;2.00;;;34.10;94.80;;;;;;4234217;27;20138;-73
2021/09/02 08:10:34;;;;;;;3.58;2.17;;;34.30;95.00;;;;;;4228106;27;20050;-73
2021/09/02 08:12:38;;;;;;;3.88;2.30;;;34.40;94.80;;;;;;4229674;27;20590;-73
2021/09/02 08:14:42;;;;;;;3.55;2.58;;;34.50;94.50;;;;;;4230091;27;20069;-73
2021/09/02 08:16:46;;;;;;;3.88;2.25;;;34.60;94.10;;;;;;4211697;28;20524;-73
2021/09/02 08:18:51;;;;;;;2.58;2.13;;;34.60;94.10;;;;;;4225335;28;20478;-73
2021/09/02 08:20:55;;;;;;;3.65;2.20;;;34.60;94.00;;;;;;4223322;28;20135;-73
2021/09/02 08:23:00;;;;;;;2.33;2.00;;;34.60;94.10;;;;;;4223932;28;20069;-73
2021/09/02 08:25:04;;;;;;;4.75;2.20;;;34.60;94.20;;;;;;4225741;28;20043;-74
2021/09/02 08:27:09;;;;;;;4.38;2.60;;;34.70;94.10;;;;;;4224431;28;20039;-74
2021/09/02 08:29:14;;;;;;;3.42;2.28;;;34.70;94.10;;;;;;4226523;28;20093;-74
2021/09/02 08:31:18;;;;;;;2.70;2.42;;;34.60;94.00;;;;;;4224562;28;20556;-75
2021/09/02 08:33:23;;;;;;;2.63;1.80;;;34.50;93.70;;;;;;4225593;28;20032;-73
2021/09/02 08:35:30;;;;;;;3.22;1.80;;;34.30;93.20;;;;;;4224049;28;20104;-74
2021/09/02 08:37:34;;;;;;;2.15;1.95;;;34.30;93.30;;;;;;4225611;28;20816;-74
2021/09/02 08:39:39;;;;;;;2.78;1.90;;;34.20;93.40;;;;;;4230206;28;20043;-74
2021/09/02 08:41:43;;;;;;;1.98;1.55;;;34.20;93.30;;;;;;4232419;28;20557;-74
2021/09/02 08:43:48;;;;;;;3.97;1.98;;;34.10;93.70;;;;;;4234561;28;20051;-73
2021/09/02 08:46:09;;;;;;;3.20;2.08;;;34.00;93.80;;;;;;4232298;28;20035;-74
2021/09/02 08:48:14;;;;;;;2.08;1.73;;;33.90;94.00;;;;;;4223633;27;20675;-74
2021/09/02 08:50:21;;;;;;;4.15;2.22;;;33.90;94.40;;;;;;4236981;27;20104;-76
2021/09/02 08:52:29;;;;;;;3.25;2.03;;;33.80;94.90;;;;;;4244496;27;20617;-74
2021/09/02 08:54:34;;;;;;;3.03;2.00;;;33.60;95.40;;;;;;4232319;27;20052;-75
2021/09/02 08:56:38;;;;;;;2.88;1.75;;;33.50;95.40;;;;;;4226323;27;20134;-74
2021/09/02 08:58:42;;;;;;;9.05;2.22;;;33.20;95.60;;;;;;4236509;27;20485;-74
2021/09/02 09:00:47;;;;;;;5.07;2.03;;;33.20;95.90;;;;;;4216575;28;20048;-73
2021/09/02 09:03:00;;;;;;;2.72;2.20;;;33.20;95.90;;;;;;4227499;28;20035;-72
2021/09/02 09:05:07;;;;;;;4.82;1.95;;;33.20;95.90;;;;;;4226403;28;20082;-72
2021/09/02 09:07:11;;;;;;;3.97;1.73;;;33.20;95.80;;;;;;4225960;27;20075;-72
2021/09/02 09:09:17;;;;;;;3.38;1.83;;;33.10;95.70;;;;;;4243747;27;20122;-75
2021/09/02 09:11:29;;;;;;;3.42;2.40;;;33.00;96.00;;;;;;4242350;27;20112;-73
2021/09/02 09:13:36;;;;;;;4.10;2.38;;;33.00;96.30;;;;;;4237209;27;20039;-73
2021/09/02 09:15:45;;;;;;;4.32;2.00;;;32.80;96.30;;;;;;4217879;28;20093;-74
2021/09/02 09:17:50;;;;;;;5.20;2.85;;;32.70;97.10;;;;;;4234696;27;20048;-73
2021/09/02 09:19:54;;;;;;;9.68;3.83;;;32.60;97.70;;;;;;4236306;27;20466;-74
2021/09/02 09:21:59;;;;;;;8.18;2.90;;;32.30;99.70;;;;;;4234145;27;20133;-74
2021/09/02 09:24:05;;;;;;;6.90;2.95;;;32.20;99.90;;;;;;4230833;27;20043;-73
2021/09/02 09:26:11;;;;;;;9.55;2.90;;;31.90;99.90;;;;;;4228764;28;20044;-72
2021/09/02 09:28:15;;;;;;;6.60;2.55;;;31.90;99.90;;;;;;4228821;28;20424;-72
2021/09/02 09:30:27;;;;;;;12.20;2.58;;;31.60;99.90;;;;;;4215890;28;20174;-72
2021/09/02 09:32:54;;;;;;;7.30;2.25;;;31.70;99.90;;;;;;4239102;27;20516;-73
2021/09/02 09:34:58;;;;;;;3.60;1.98;;;31.60;99.90;;;;;;4236974;27;20059;-73
2021/09/02 09:37:07;;;;;;;6.90;2.50;;;31.60;99.90;;;;;;4232837;27;20093;-71
2021/09/02 09:39:13;;;;;;;4.38;2.40;;;31.60;99.90;;;;;;4234751;27;20688;-71
2021/09/02 09:41:17;;;;;;;5.10;1.95;;;31.60;99.90;;;;;;4234345;27;20054;-71
2021/09/02 09:43:23;;;;;;;5.43;3.45;;;31.50;99.90;;;;;;4199742;28;20063;-72
2021/09/02 09:45:41;;;;;;;5.63;4.00;;;31.20;99.90;;;;;;4236144;27;20439;-73
2021/09/02 09:47:45;;;;;;;8.20;4.25;;;31.20;99.90;;;;;;4241046;27;20050;-75
2021/09/02 09:49:55;;;;;;;7.75;3.60;;;31.30;99.90;;;;;;4239896;27;20072;-72
2021/09/02 09:52:08;;;;;;;8.48;3.47;;;31.30;99.90;;;;;;4237800;27;20039;-73
2021/09/02 09:54:13;;;;;;;27.85;4.25;;;31.20;99.90;;;;;;4218110;28;20039;-73
2021/09/02 09:56:20;;;;;;;11.15;4.10;;;31.20;99.90;;;;;;4202488;28;20047;-73
2021/09/02 09:58:26;;;;;;;8.55;3.45;;;30.90;99.90;;;;;;4234875;27;20452;-76
2021/09/02 10:00:35;;;;;;;6.75;2.75;;;31.00;99.90;;;;;;4235399;27;20045;-72
2021/09/02 10:02:44;;;;;;;5.43;2.47;;;31.00;99.90;;;;;;4240112;27;20088;-72
2021/09/02 10:04:49;;;;;;;13.30;3.05;;;30.90;99.90;;;;;;4228801;28;20141;-72
2021/09/02 10:06:54;;;;;;;17.42;3.30;;;30.80;99.90;;;;;;4228522;28;20047;-72
2021/09/02 10:08:58;;;;;;;33.10;4.32;;;31.00;99.90;;;;;;4228511;28;20043;-70
2021/09/02 10:11:07;;;;;;;32.03;4.05;;;31.10;99.90;;;;;;4211228;28;20040;-71
2021/09/02 10:13:11;;;;;;;11.82;4.05;;;31.10;99.90;;;;;;4228631;28;20071;-71
2021/09/02 10:15:17;;;;;;;15.82;3.95;;;31.10;99.90;;;;;;4228529;28;20043;-71
2021/09/02 10:17:22;;;;;;;10.18;3.53;;;31.10;99.90;;;;;;4228495;28;20085;-72
2021/09/02 10:19:26;;;;;;;8.20;4.13;;;31.00;99.90;;;;;;4228634;28;20075;-72
2021/09/02 10:21:30;;;;;;;9.63;4.43;;;30.80;99.90;;;;;;4228425;28;20596;-70
2021/09/02 10:23:35;;;;;;;10.52;5.28;;;30.90;99.90;;;;;;4228531;28;20036;-71
2021/09/02 10:25:39;;;;;;;8.13;4.60;;;30.80;99.90;;;;;;4228215;28;20139;-72
2021/09/02 10:27:43;;;;;;;10.40;4.40;;;30.70;99.90;;;;;;4228408;28;20553;-72
2021/09/02 10:29:49;;;;;;;5.90;3.75;;;30.70;99.90;;;;;;4227497;28;20040;-71
2021/09/02 10:31:53;;;;;;;4.25;3.20;;;30.60;99.90;;;;;;4228108;28;20035;-72
2021/09/02 10:33:58;;;;;;;4.97;3.33;;;30.50;99.90;;;;;;4228598;27;20131;-72
2021/09/02 10:36:38;;;;;;;4.60;3.58;;;30.50;99.90;;;;;;4227567;28;20048;-72
2021/09/02 10:38:56;;;;;;;6.10;3.00;;;30.30;99.90;;;;;;4229291;27;20464;-72
2021/09/02 10:41:00;;;;;;;5.68;2.90;;;30.00;99.90;;;;;;4234727;27;20126;-73
2021/09/02 10:43:05;;;;;;;7.47;3.13;;;30.20;99.90;;;;;;4235403;27;20051;-70
2021/09/02 10:45:33;;;;;;;8.55;3.10;;;30.30;99.90;;;;;;4232157;27;20040;-71
2021/09/02 10:47:44;;;;;;;5.88;3.65;;;30.40;99.90;;;;;;4235448;27;20131;-72
2021/09/02 10:50:01;;;;;;;7.32;2.97;;;30.40;99.90;;;;;;4235753;27;20433;-72